2016 Cux-Wetter.de -Die Nutzung der Wetterdaten nur mit ausdrcklicher Genehmigung
Wetterdaten: Woche 23.07.18 - 29.07.18 (KW30)
Datum Zeit Temp. A. Feuchte A. Luftdruck Regen Wind Richtung Sonnenschein Solar Taupunkt Windchill Windben
23.07.2018 00:00 18,4 C 84 % 1014,2 hPa 0,0 l/m 3,5 km/h (1 Bft) NW 0,00 h 0 W/m 15,6 C 18,4 C 8,2 km/h (2 Bft)
23.07.2018 01:00 18,3 C 85 % 1014,2 hPa 0,0 l/m 2,6 km/h (1 Bft) W-NW 0,00 h 0 W/m 15,6 C 18,3 C 6,6 km/h (2 Bft)
23.07.2018 02:00 18,1 C 88 % 1014,3 hPa 0,0 l/m 2,4 km/h (1 Bft) W-NW 0,00 h 0 W/m 16,0 C 18,1 C 5,9 km/h (2 Bft)
23.07.2018 03:00 16,8 C 89 % 1014,3 hPa 0,0 l/m 0,9 km/h (0 Bft) W-NW 0,00 h 0 W/m 15,0 C 16,8 C 3,0 km/h (1 Bft)
23.07.2018 04:00 15,9 C 92 % 1014,4 hPa 0,0 l/m 0,1 km/h (0 Bft) N 0,00 h 0 W/m 14,6 C 15,9 C 0,6 km/h (0 Bft)
23.07.2018 05:00 16,5 C 94 % 1014,7 hPa 0,0 l/m 2,3 km/h (1 Bft) W-NW 0,00 h 7 W/m 15,4 C 16,5 C 5,8 km/h (2 Bft)
23.07.2018 06:00 18,3 C 94 % 1014,9 hPa 0,0 l/m 3,2 km/h (1 Bft) W 0,00 h 31 W/m 17,2 C 18,3 C 7,8 km/h (2 Bft)
23.07.2018 07:00 18,6 C 91 % 1015,0 hPa 0,0 l/m 5,2 km/h (1 Bft) W 0,00 h 41 W/m 17,2 C 18,5 C 11,7 km/h (2 Bft)
23.07.2018 08:00 19,5 C 87 % 1015,2 hPa 0,0 l/m 5,7 km/h (2 Bft) W 0,45 h 210 W/m 17,3 C 19,4 C 11,7 km/h (2 Bft)
23.07.2018 09:00 20,7 C 80 % 1015,4 hPa 0,0 l/m 4,7 km/h (1 Bft) W 0,85 h 410 W/m 17,2 C 20,6 C 10,5 km/h (2 Bft)
23.07.2018 10:00 22,0 C 73 % 1015,6 hPa 0,0 l/m 6,7 km/h (2 Bft) W 0,90 h 533 W/m 17,0 C 21,8 C 13,4 km/h (3 Bft)
23.07.2018 11:00 22,6 C 71 % 1015,9 hPa 0,0 l/m 7,9 km/h (2 Bft) W-NW 0,95 h 687 W/m 17,1 C 22,1 C 15,1 km/h (3 Bft)
23.07.2018 12:00 23,3 C 70 % 1015,9 hPa 0,0 l/m 6,4 km/h (2 Bft) W 1,00 h 672 W/m 17,4 C 23,1 C 14,1 km/h (3 Bft)
23.07.2018 13:00 24,0 C 65 % 1016,0 hPa 0,0 l/m 7,7 km/h (2 Bft) NW 1,00 h 797 W/m 17,1 C 23,7 C 15,0 km/h (3 Bft)
23.07.2018 14:00 24,9 C 65 % 1015,8 hPa 0,0 l/m 6,8 km/h (2 Bft) W-NW 1,00 h 774 W/m 17,8 C 24,7 C 13,9 km/h (3 Bft)
23.07.2018 15:00 24,8 C 69 % 1015,8 hPa 0,0 l/m 6,1 km/h (2 Bft) NW 1,00 h 707 W/m 18,6 C 24,7 C 13,0 km/h (3 Bft)
23.07.2018 16:00 24,8 C 70 % 1015,6 hPa 0,0 l/m 6,4 km/h (2 Bft) NW 1,00 h 608 W/m 19,0 C 24,7 C 13,1 km/h (3 Bft)
23.07.2018 17:00 24,9 C 67 % 1015,4 hPa 0,0 l/m 7,0 km/h (2 Bft) N-NW 1,00 h 478 W/m 18,3 C 24,7 C 14,0 km/h (3 Bft)
23.07.2018 18:00 24,4 C 58 % 1015,3 hPa 0,0 l/m 7,4 km/h (2 Bft) N-NW 0,70 h 270 W/m 15,6 C 24,1 C 13,1 km/h (3 Bft)
23.07.2018 19:00 22,7 C 66 % 1015,2 hPa 0,0 l/m 4,4 km/h (1 Bft) NW 0,00 h 38 W/m 16,0 C 22,7 C 8,8 km/h (2 Bft)
23.07.2018 20:00 21,6 C 70 % 1015,3 hPa 0,0 l/m 3,1 km/h (1 Bft) N-NW 0,00 h 23 W/m 15,9 C 21,6 C 7,1 km/h (2 Bft)
23.07.2018 21:00 20,1 C 77 % 1015,4 hPa 0,0 l/m 0,5 km/h (0 Bft) N 0,00 h 7 W/m 15,8 C 20,1 C 2,9 km/h (1 Bft)
23.07.2018 22:00 19,1 C 83 % 1015,4 hPa 0,0 l/m 0,1 km/h (0 Bft) N 0,00 h 0 W/m 16,1 C 19,1 C 0,9 km/h (0 Bft)
23.07.2018 23:00 18,3 C 86 % 1015,4 hPa 0,0 l/m 0,0 km/h (0 Bft) N 0,00 h 0 W/m 15,8 C 18,3 C 0,1 km/h (0 Bft)
24.07.2018 00:00 17,6 C 87 % 1015,5 hPa 0,0 l/m 0,0 km/h (0 Bft) N 0,00 h 0 W/m 15,5 C 17,6 C 0,1 km/h (0 Bft)
24.07.2018 01:00 17,0 C 90 % 1015,4 hPa 0,0 l/m 0,0 km/h (0 Bft) N 0,00 h 0 W/m 15,3 C 17,0 C 0,0 km/h (0 Bft)
24.07.2018 02:00 16,4 C 91 % 1015,0 hPa 0,0 l/m 0,0 km/h (0 Bft) N 0,00 h 0 W/m 14,9 C 16,4 C 0,0 km/h (0 Bft)
24.07.2018 03:00 15,9 C 92 % 1014,7 hPa 0,0 l/m 0,0 km/h (0 Bft) N 0,00 h 0 W/m 14,6 C 15,9 C 0,0 km/h (0 Bft)
24.07.2018 04:00 15,6 C 93 % 1014,5 hPa 0,0 l/m 0,0 km/h (0 Bft) N 0,00 h 0 W/m 14,5 C 15,6 C 0,0 km/h (0 Bft)
24.07.2018 05:00 15,4 C 93 % 1014,4 hPa 0,0 l/m 0,0 km/h (0 Bft) N 0,00 h 7 W/m 14,2 C 15,4 C 0,0 km/h (0 Bft)
24.07.2018 06:00 16,3 C 92 % 1014,3 hPa 0,0 l/m 0,0 km/h (0 Bft) N 0,00 h 18 W/m 15,0 C 16,3 C 0,0 km/h (0 Bft)
24.07.2018 07:00 17,5 C 90 % 1014,3 hPa 0,0 l/m 0,0 km/h (0 Bft) N 0,00 h 29 W/m 15,7 C 17,5 C 0,0 km/h (0 Bft)
24.07.2018 08:00 19,9 C 86 % 1014,4 hPa 0,0 l/m 0,0 km/h (0 Bft) N 0,45 h 196 W/m 17,5 C 19,9 C 0,0 km/h (0 Bft)
24.07.2018 09:00 23,3 C 76 % 1014,2 hPa 0,0 l/m 2,3 km/h (1 Bft) N-NW 1,00 h 457 W/m 18,8 C 23,3 C 4,7 km/h (1 Bft)
24.07.2018 10:00 24,8 C 72 % 1014,1 hPa 0,0 l/m 3,1 km/h (1 Bft) N 1,00 h 530 W/m 19,5 C 24,8 C 6,6 km/h (2 Bft)
24.07.2018 11:00 26,4 C 65 % 1014,1 hPa 0,0 l/m 3,5 km/h (1 Bft) N-NW 1,00 h 702 W/m 19,3 C 26,4 C 7,5 km/h (2 Bft)
24.07.2018 12:00 28,0 C 57 % 1013,8 hPa 0,0 l/m 4,5 km/h (1 Bft) N-NW 1,00 h 668 W/m 18,7 C 28,0 C 9,2 km/h (2 Bft)
24.07.2018 13:00 29,3 C 52 % 1013,5 hPa 0,0 l/m 3,8 km/h (1 Bft) N-NW 1,00 h 791 W/m 18,3 C 29,3 C 8,2 km/h (2 Bft)
24.07.2018 14:00 29,7 C 52 % 1013,3 hPa 0,0 l/m 4,8 km/h (1 Bft) N 1,00 h 763 W/m 18,8 C 29,7 C 10,2 km/h (2 Bft)
24.07.2018 15:00 30,0 C 51 % 1013,1 hPa 0,0 l/m 5,9 km/h (2 Bft) N-NW 1,00 h 709 W/m 18,7 C 30,0 C 13,2 km/h (3 Bft)
24.07.2018 16:00 30,0 C 51 % 1012,9 hPa 0,0 l/m 5,9 km/h (2 Bft) N-NW 1,00 h 614 W/m 18,8 C 30,0 C 13,2 km/h (3 Bft)
24.07.2018 17:00 29,8 C 51 % 1012,8 hPa 0,0 l/m 6,4 km/h (2 Bft) N-NW 1,00 h 481 W/m 18,6 C 29,8 C 14,4 km/h (3 Bft)
24.07.2018 18:00 28,6 C 57 % 1012,8 hPa 0,0 l/m 8,5 km/h (2 Bft) N-NW 0,65 h 254 W/m 19,1 C 28,4 C 16,8 km/h (3 Bft)
24.07.2018 19:00 26,7 C 64 % 1012,7 hPa 0,0 l/m 4,4 km/h (1 Bft) N-NW 0,00 h 42 W/m 19,4 C 26,7 C 10,7 km/h (2 Bft)
24.07.2018 20:00 25,4 C 72 % 1012,5 hPa 0,0 l/m 3,7 km/h (1 Bft) N 0,00 h 23 W/m 19,9 C 25,4 C 9,6 km/h (2 Bft)
24.07.2018 21:00 24,3 C 79 % 1012,7 hPa 0,0 l/m 3,0 km/h (1 Bft) N-NW 0,00 h 8 W/m 20,4 C 24,3 C 7,1 km/h (2 Bft)
24.07.2018 22:00 23,1 C 83 % 1013,0 hPa 0,0 l/m 0,7 km/h (0 Bft) N 0,00 h 0 W/m 20,0 C 23,1 C 3,1 km/h (1 Bft)
24.07.2018 23:00 22,4 C 86 % 1013,0 hPa 0,0 l/m 0,4 km/h (0 Bft) N 0,00 h 0 W/m 19,9 C 22,4 C 2,0 km/h (1 Bft)
25.07.2018 00:00 21,8 C 87 % 1013,1 hPa 0,0 l/m 0,1 km/h (0 Bft) N 0,00 h 0 W/m 19,5 C 21,8 C 1,0 km/h (0 Bft)
25.07.2018 01:00 21,2 C 88 % 1013,2 hPa 0,0 l/m 0,0 km/h (0 Bft) N 0,00 h 0 W/m 19,2 C 21,2 C 0,0 km/h (0 Bft)
25.07.2018 02:00 20,8 C 90 % 1013,3 hPa 0,0 l/m 0,5 km/h (0 Bft) N 0,00 h 0 W/m 19,1 C 20,8 C 2,2 km/h (1 Bft)
25.07.2018 03:00 20,8 C 91 % 1013,4 hPa 0,0 l/m 0,6 km/h (0 Bft) N 0,00 h 0 W/m 19,4 C 20,8 C 2,3 km/h (1 Bft)
25.07.2018 04:00 20,8 C 94 % 1013,4 hPa 0,0 l/m 0,1 km/h (0 Bft) N 0,00 h 0 W/m 19,7 C 20,8 C 0,7 km/h (0 Bft)
25.07.2018 05:00 20,5 C 94 % 1013,4 hPa 0,0 l/m 0,3 km/h (0 Bft) N 0,00 h 8 W/m 19,5 C 20,5 C 2,2 km/h (1 Bft)
25.07.2018 06:00 20,3 C 95 % 1013,6 hPa 0,0 l/m 1,1 km/h (1 Bft) N 0,00 h 18 W/m 19,4 C 20,3 C 3,9 km/h (1 Bft)
25.07.2018 07:00 21,3 C 89 % 1014,0 hPa 0,0 l/m 1,9 km/h (1 Bft) N 0,00 h 38 W/m 19,5 C 21,3 C 5,0 km/h (1 Bft)
25.07.2018 08:00 22,9 C 84 % 1014,4 hPa 0,0 l/m 3,7 km/h (1 Bft) N-NW 0,45 h 188 W/m 20,0 C 22,9 C 9,3 km/h (2 Bft)
25.07.2018 09:00 24,5 C 80 % 1014,6 hPa 0,0 l/m 5,7 km/h (2 Bft) N 1,00 h 431 W/m 20,9 C 24,4 C 13,3 km/h (3 Bft)
25.07.2018 10:00 26,1 C 75 % 1014,6 hPa 0,0 l/m 6,0 km/h (2 Bft) N 1,00 h 513 W/m 21,3 C 26,1 C 14,8 km/h (3 Bft)
25.07.2018 11:00 27,3 C 71 % 1014,7 hPa 0,0 l/m 7,8 km/h (2 Bft) N-NW 1,00 h 642 W/m 21,5 C 27,0 C 16,1 km/h (3 Bft)
25.07.2018 12:00 27,5 C 70 % 1014,9 hPa 0,0 l/m 10,6 km/h (2 Bft) N-NW 0,70 h 567 W/m 21,4 C 26,8 C 19,9 km/h (4 Bft)
25.07.2018 13:00 27,4 C 68 % 1014,9 hPa 0,0 l/m 13,4 km/h (3 Bft) N 1,00 h 757 W/m 21,0 C 26,4 C 22,6 km/h (4 Bft)
25.07.2018 14:00 27,8 C 67 % 1014,8 hPa 0,0 l/m 12,1 km/h (2 Bft) N-NW 1,00 h 733 W/m 21,2 C 27,0 C 22,6 km/h (4 Bft)
25.07.2018 15:00 28,1 C 66 % 1014,6 hPa 0,0 l/m 12,0 km/h (2 Bft) N 1,00 h 679 W/m 21,2 C 27,4 C 20,9 km/h (4 Bft)
25.07.2018 16:00 27,4 C 67 % 1014,9 hPa 0,0 l/m 13,0 km/h (3 Bft) N-NW 1,00 h 565 W/m 20,6 C 26,4 C 24,0 km/h (4 Bft)
25.07.2018 17:00 26,5 C 66 % 1015,0 hPa 0,0 l/m 9,4 km/h (2 Bft) N-NW 0,50 h 317 W/m 19,6 C 25,9 C 19,5 km/h (3 Bft)
25.07.2018 18:00 27,5 C 68 % 1015,1 hPa 0,0 l/m 7,4 km/h (2 Bft) N-NW 0,65 h 264 W/m 21,1 C 27,3 C 16,4 km/h (3 Bft)
25.07.2018 19:00 26,4 C 75 % 1014,9 hPa 0,0 l/m 7,6 km/h (2 Bft) N-NW 0,00 h 52 W/m 21,5 C 26,1 C 16,6 km/h (3 Bft)
25.07.2018 20:00 25,2 C 74 % 1014,9 hPa 0,0 l/m 4,6 km/h (1 Bft) N-NW 0,00 h 25 W/m 20,2 C 25,2 C 10,3 km/h (2 Bft)
25.07.2018 21:00 24,0 C 80 % 1015,0 hPa 0,0 l/m 4,4 km/h (1 Bft) N-NW 0,00 h 8 W/m 20,4 C 24,0 C 9,8 km/h (2 Bft)
25.07.2018 22:00 23,3 C 84 % 1015,1 hPa 0,0 l/m 4,9 km/h (1 Bft) N-NW 0,00 h 0 W/m 20,5 C 23,3 C 11,8 km/h (2 Bft)
25.07.2018 23:00 22,9 C 87 % 1015,6 hPa 0,0 l/m 3,9 km/h (1 Bft) N-NW 0,00 h 0 W/m 20,7 C 22,9 C 9,2 km/h (2 Bft)
26.07.2018 00:00 22,4 C 89 % 1015,7 hPa 0,0 l/m 2,3 km/h (1 Bft) N 0,00 h 0 W/m 20,5 C 22,4 C 6,3 km/h (2 Bft)
26.07.2018 01:00 21,6 C 92 % 1015,8 hPa 0,0 l/m 0,3 km/h (0 Bft) N 0,00 h 0 W/m 20,2 C 21,6 C 1,9 km/h (1 Bft)
26.07.2018 02:00 20,8 C 93 % 1015,7 hPa 0,0 l/m 0,1 km/h (0 Bft) N 0,00 h 0 W/m 19,7 C 20,8 C 1,3 km/h (1 Bft)
26.07.2018 03:00 20,2 C 94 % 1015,9 hPa 0,0 l/m 0,1 km/h (0 Bft) N 0,00 h 0 W/m 19,2 C 20,2 C 1,1 km/h (1 Bft)
26.07.2018 04:00 19,8 C 93 % 1015,8 hPa 0,0 l/m 0,0 km/h (0 Bft) N 0,00 h 0 W/m 18,7 C 19,8 C 0,0 km/h (0 Bft)
26.07.2018 05:00 19,6 C 93 % 1015,8 hPa 0,0 l/m 0,0 km/h (0 Bft) N 0,00 h 8 W/m 18,4 C 19,6 C 0,0 km/h (0 Bft)
26.07.2018 06:00 19,8 C 93 % 1015,9 hPa 0,0 l/m 0,6 km/h (0 Bft) NO 0,00 h 22 W/m 18,7 C 19,8 C 1,9 km/h (1 Bft)
26.07.2018 07:00 21,0 C 91 % 1016,0 hPa 0,0 l/m 1,1 km/h (1 Bft) NO 0,00 h 41 W/m 19,5 C 21,0 C 3,8 km/h (1 Bft)
26.07.2018 08:00 22,7 C 85 % 1016,2 hPa 0,0 l/m 1,7 km/h (1 Bft) O-NO 0,35 h 162 W/m 19,9 C 22,7 C 5,3 km/h (1 Bft)
26.07.2018 09:00 25,2 C 75 % 1016,2 hPa 0,0 l/m 3,1 km/h (1 Bft) NO 1,00 h 428 W/m 20,5 C 25,2 C 8,9 km/h (2 Bft)
26.07.2018 10:00 27,1 C 68 % 1016,3 hPa 0,0 l/m 3,3 km/h (1 Bft) NO 0,70 h 441 W/m 20,8 C 27,1 C 8,7 km/h (2 Bft)
26.07.2018 11:00 29,7 C 58 % 1016,3 hPa 0,0 l/m 4,0 km/h (1 Bft) NO 1,00 h 690 W/m 20,5 C 29,7 C 10,4 km/h (2 Bft)
26.07.2018 12:00 31,3 C 48 % 1016,0 hPa 0,0 l/m 4,7 km/h (1 Bft) O-NO 1,00 h 654 W/m 18,8 C 31,3 C 12,4 km/h (2 Bft)
26.07.2018 13:00 32,7 C 44 % 1015,7 hPa 0,0 l/m 4,9 km/h (1 Bft) NO 1,00 h 762 W/m 18,7 C 32,7 C 12,6 km/h (2 Bft)
26.07.2018 14:00 33,4 C 41 % 1015,5 hPa 0,0 l/m 4,9 km/h (1 Bft) NO 1,00 h 739 W/m 18,3 C 33,4 C 12,6 km/h (2 Bft)
26.07.2018 15:00 33,9 C 39 % 1015,1 hPa 0,0 l/m 5,2 km/h (1 Bft) NO 1,00 h 678 W/m 17,8 C 33,9 C 13,3 km/h (3 Bft)
26.07.2018 16:00 34,1 C 38 % 1014,8 hPa 0,0 l/m 4,7 km/h (1 Bft) NO 1,00 h 539 W/m 17,7 C 34,1 C 11,2 km/h (2 Bft)
26.07.2018 17:00 33,7 C 41 % 1014,5 hPa 0,0 l/m 4,3 km/h (1 Bft) N-NO 1,00 h 426 W/m 18,5 C 33,7 C 11,0 km/h (2 Bft)
26.07.2018 18:00 32,7 C 49 % 1014,3 hPa 0,0 l/m 3,5 km/h (1 Bft) NO 0,75 h 264 W/m 20,6 C 32,7 C 8,9 km/h (2 Bft)
26.07.2018 19:00 17,4 C 26 % 1014,2 hPa 0,0 l/m 4,0 km/h (1 Bft) O-NO 0,00 h 55 W/m -16,4 C 17,4 C 10,7 km/h (2 Bft)
26.07.2018 20:00 26,5 C 46 % 1014,5 hPa 0,0 l/m 4,6 km/h (1 Bft) O-NO 0,00 h 25 W/m 10,6 C 26,5 C 12,8 km/h (3 Bft)
26.07.2018 21:00 27,9 C 57 % 1015,1 hPa 0,0 l/m 4,3 km/h (1 Bft) NO 0,00 h 8 W/m 18,5 C 27,9 C 11,8 km/h (2 Bft)
26.07.2018 22:00 26,7 C 60 % 1015,5 hPa 0,0 l/m 4,9 km/h (1 Bft) O-NO 0,00 h 0 W/m 18,1 C 26,7 C 13,1 km/h (3 Bft)
26.07.2018 23:00 25,7 C 64 % 1015,7 hPa 0,0 l/m 4,3 km/h (1 Bft) NO 0,00 h 0 W/m 18,4 C 25,7 C 12,6 km/h (2 Bft)
27.07.2018 00:00 24,9 C 67 % 1015,9 hPa 0,0 l/m 4,7 km/h (1 Bft) NO 0,00 h 0 W/m 18,4 C 24,9 C 13,3 km/h (3 Bft)
27.07.2018 01:00 24,1 C 71 % 1015,9 hPa 0,0 l/m 3,7 km/h (1 Bft) O 0,00 h 0 W/m 18,5 C 24,1 C 10,5 km/h (2 Bft)
27.07.2018 02:00 23,3 C 74 % 1015,8 hPa 0,0 l/m 2,3 km/h (1 Bft) O 0,00 h 0 W/m 18,4 C 23,3 C 7,1 km/h (2 Bft)
27.07.2018 03:00 22,6 C 78 % 1015,6 hPa 0,0 l/m 2,5 km/h (1 Bft) O-NO 0,00 h 0 W/m 18,5 C 22,6 C 7,7 km/h (2 Bft)
27.07.2018 04:00 22,1 C 80 % 1015,5 hPa 0,0 l/m 2,4 km/h (1 Bft) O 0,00 h 0 W/m 18,4 C 22,1 C 8,0 km/h (2 Bft)
27.07.2018 05:00 21,4 C 81 % 1015,5 hPa 0,0 l/m 2,0 km/h (1 Bft) O 0,00 h 8 W/m 18,0 C 21,4 C 6,3 km/h (2 Bft)
27.07.2018 06:00 21,3 C 83 % 1015,5 hPa 0,0 l/m 2,1 km/h (1 Bft) O-SO 0,00 h 19 W/m 18,2 C 21,3 C 6,1 km/h (2 Bft)
27.07.2018 07:00 21,8 C 81 % 1015,7 hPa 0,0 l/m 3,3 km/h (1 Bft) O-NO 0,00 h 31 W/m 18,5 C 21,8 C 9,3 km/h (2 Bft)
27.07.2018 08:00 22,8 C 79 % 1015,7 hPa 0,0 l/m 2,3 km/h (1 Bft) O 0,25 h 145 W/m 18,9 C 22,8 C 6,4 km/h (2 Bft)
27.07.2018 09:00 25,2 C 70 % 1015,5 hPa 0,0 l/m 2,9 km/h (1 Bft) O-NO 1,00 h 452 W/m 19,4 C 25,2 C 8,4 km/h (2 Bft)
27.07.2018 10:00 27,3 C 61 % 1015,2 hPa 0,0 l/m 3,8 km/h (1 Bft) N-NO 1,00 h 549 W/m 19,0 C 27,3 C 10,2 km/h (2 Bft)
27.07.2018 11:00 29,3 C 47 % 1014,9 hPa 0,0 l/m 5,9 km/h (2 Bft) NO 1,00 h 710 W/m 16,8 C 29,3 C 14,3 km/h (3 Bft)
27.07.2018 12:00 30,8 C 43 % 1014,5 hPa 0,0 l/m 6,6 km/h (2 Bft) NO 1,00 h 676 W/m 16,6 C 30,8 C 15,5 km/h (3 Bft)
27.07.2018 13:00 32,1 C 41 % 1014,0 hPa 0,0 l/m 5,5 km/h (2 Bft) N-NO 1,00 h 802 W/m 17,2 C 32,1 C 13,9 km/h (3 Bft)
27.07.2018 14:00 32,5 C 41 % 1013,3 hPa 0,0 l/m 6,4 km/h (2 Bft) NO 1,00 h 779 W/m 17,5 C 32,5 C 15,5 km/h (3 Bft)
27.07.2018 15:00 32,9 C 40 % 1012,7 hPa 0,0 l/m 5,8 km/h (2 Bft) NO 1,00 h 712 W/m 17,3 C 32,9 C 14,7 km/h (3 Bft)
27.07.2018 16:00 33,1 C 40 % 1012,1 hPa 0,0 l/m 5,8 km/h (2 Bft) O 1,00 h 607 W/m 17,5 C 33,1 C 13,9 km/h (3 Bft)
27.07.2018 17:00 32,8 C 43 % 1011,5 hPa 0,0 l/m 5,9 km/h (2 Bft) O-NO 1,00 h 475 W/m 18,6 C 32,8 C 15,2 km/h (3 Bft)
27.07.2018 18:00 31,8 C 47 % 1011,1 hPa 0,0 l/m 5,5 km/h (2 Bft) NO 0,70 h 250 W/m 19,1 C 31,8 C 14,5 km/h (3 Bft)
27.07.2018 19:00 30,3 C 52 % 1010,8 hPa 0,0 l/m 5,7 km/h (2 Bft) O-NO 0,00 h 40 W/m 19,2 C 30,3 C 14,8 km/h (3 Bft)
27.07.2018 20:00 28,4 C 62 % 1010,8 hPa 0,0 l/m 6,2 km/h (2 Bft) O-NO 0,00 h 23 W/m 20,2 C 28,3 C 16,8 km/h (3 Bft)
27.07.2018 21:00 26,9 C 66 % 1010,9 hPa 0,0 l/m 5,1 km/h (1 Bft) NO 0,00 h 8 W/m 20,0 C 26,9 C 15,2 km/h (3 Bft)
27.07.2018 22:00 26,1 C 65 % 1010,5 hPa 0,0 l/m 6,4 km/h (2 Bft) N 0,00 h 0 W/m 19,0 C 26,0 C 16,3 km/h (3 Bft)
27.07.2018 23:00 25,2 C 68 % 1010,3 hPa 0,0 l/m 6,3 km/h (2 Bft) NO 0,00 h 0 W/m 18,9 C 25,1 C 16,1 km/h (3 Bft)
28.07.2018 00:00 24,5 C 72 % 1010,2 hPa 0,0 l/m 5,4 km/h (2 Bft) N-NO 0,00 h 0 W/m 19,1 C 24,4 C 15,2 km/h (3 Bft)
28.07.2018 01:00 23,9 C 74 % 1010,1 hPa 0,0 l/m 5,2 km/h (1 Bft) O-NO 0,00 h 0 W/m 19,1 C 23,9 C 14,0 km/h (3 Bft)
28.07.2018 02:00 23,3 C 76 % 1009,4 hPa 0,0 l/m 4,9 km/h (1 Bft) NO 0,00 h 0 W/m 18,8 C 23,3 C 13,9 km/h (3 Bft)
28.07.2018 03:00 22,6 C 78 % 1008,6 hPa 0,0 l/m 5,6 km/h (2 Bft) NO 0,00 h 0 W/m 18,5 C 22,6 C 15,5 km/h (3 Bft)
28.07.2018 04:00 22,0 C 81 % 1007,9 hPa 0,0 l/m 5,8 km/h (2 Bft) O-SO 0,00 h 0 W/m 18,5 C 22,0 C 15,0 km/h (3 Bft)
28.07.2018 05:00 21,5 C 84 % 1007,2 hPa 0,0 l/m 5,5 km/h (2 Bft) O 0,00 h 7 W/m 18,6 C 21,4 C 14,1 km/h (3 Bft)
28.07.2018 06:00 21,1 C 86 % 1006,6 hPa 0,0 l/m 4,5 km/h (1 Bft) O-SO 0,00 h 19 W/m 18,8 C 21,1 C 11,8 km/h (2 Bft)
28.07.2018 07:00 21,5 C 86 % 1006,1 hPa 0,0 l/m 5,9 km/h (2 Bft) O 0,00 h 32 W/m 18,9 C 21,4 C 14,5 km/h (3 Bft)
28.07.2018 08:00 22,9 C 81 % 1005,7 hPa 0,0 l/m 5,1 km/h (1 Bft) O-SO 0,25 h 140 W/m 19,4 C 22,8 C 13,0 km/h (3 Bft)
28.07.2018 09:00 25,6 C 72 % 1005,2 hPa 0,0 l/m 6,4 km/h (2 Bft) O-NO 1,00 h 426 W/m 20,2 C 25,5 C 16,6 km/h (3 Bft)
28.07.2018 10:00 28,0 C 62 % 1004,8 hPa 0,0 l/m 7,0 km/h (2 Bft) O 0,70 h 475 W/m 19,9 C 27,9 C 17,9 km/h (3 Bft)
28.07.2018 11:00 29,2 C 55 % 1004,5 hPa 0,0 l/m 7,6 km/h (2 Bft) NO 0,55 h 492 W/m 19,1 C 29,0 C 17,0 km/h (3 Bft)
28.07.2018 12:00 29,1 C 52 % 1004,3 hPa 0,0 l/m 9,9 km/h (2 Bft) SO 0,00 h 281 W/m 18,3 C 28,7 C 20,6 km/h (4 Bft)
28.07.2018 13:00 30,1 C 49 % 1004,2 hPa 0,0 l/m 8,5 km/h (2 Bft) SO 0,05 h 280 W/m 18,2 C 29,9 C 17,5 km/h (3 Bft)
28.07.2018 14:00 28,8 C 55 % 1004,3 hPa 0,0 l/m 10,8 km/h (2 Bft) W 0,00 h 284 W/m 18,7 C 28,3 C 19,0 km/h (3 Bft)
28.07.2018 15:00 24,3 C 73 % 1005,1 hPa 1,6 l/m 14,8 km/h (3 Bft) W 0,00 h 41 W/m 19,0 C 22,4 C 27,8 km/h (5 Bft)
28.07.2018 16:00 20,9 C 89 % 1005,8 hPa 1,0 l/m 8,2 km/h (2 Bft) W 0,00 h 11 W/m 19,0 C 20,3 C 17,3 km/h (3 Bft)
28.07.2018 17:00 21,1 C 90 % 1006,7 hPa 0,0 l/m 5,4 km/h (2 Bft) W 0,35 h 212 W/m 19,4 C 21,0 C 12,6 km/h (2 Bft)
28.07.2018 18:00 22,6 C 80 % 1007,0 hPa 0,0 l/m 8,8 km/h (2 Bft) W-SW 0,40 h 210 W/m 18,8 C 21,8 C 17,5 km/h (3 Bft)
28.07.2018 19:00 21,9 C 83 % 1007,8 hPa 0,4 l/m 7,8 km/h (2 Bft) W-SW 0,00 h 28 W/m 18,8 C 21,3 C 14,6 km/h (3 Bft)
28.07.2018 20:00 20,9 C 89 % 1008,6 hPa 0,0 l/m 5,4 km/h (1 Bft) W 0,00 h 26 W/m 19,0 C 20,8 C 11,9 km/h (2 Bft)
28.07.2018 21:00 20,4 C 85 % 1009,5 hPa 0,0 l/m 9,2 km/h (2 Bft) W 0,00 h 6 W/m 17,7 C 19,4 C 17,5 km/h (3 Bft)
28.07.2018 22:00 19,6 C 79 % 1010,5 hPa 0,0 l/m 7,7 km/h (2 Bft) W 0,00 h 0 W/m 15,9 C 19,0 C 16,6 km/h (3 Bft)
28.07.2018 23:00 19,2 C 79 % 1011,2 hPa 0,0 l/m 6,9 km/h (2 Bft) W 0,00 h 0 W/m 15,4 C 18,8 C 14,7 km/h (3 Bft)
29.07.2018 00:00 18,9 C 79 % 1011,6 hPa 0,0 l/m 4,4 km/h (1 Bft) W 0,00 h 0 W/m 15,3 C 18,9 C 9,7 km/h (2 Bft)
29.07.2018 01:00 18,1 C 82 % 1012,0 hPa 0,0 l/m 2,8 km/h (1 Bft) SW 0,00 h 0 W/m 14,8 C 18,1 C 5,8 km/h (2 Bft)
29.07.2018 02:00 16,0 C 84 % 1012,2 hPa 0,0 l/m 1,4 km/h (1 Bft) S 0,00 h 0 W/m 13,3 C 16,0 C 4,2 km/h (1 Bft)
29.07.2018 03:00 16,7 C 76 % 1012,2 hPa 0,0 l/m 7,8 km/h (2 Bft) SW 0,00 h 0 W/m 12,4 C 16,0 C 14,3 km/h (3 Bft)
29.07.2018 04:00 17,2 C 72 % 1012,2 hPa 0,0 l/m 6,2 km/h (2 Bft) SW 0,00 h 0 W/m 12,2 C 17,0 C 10,9 km/h (2 Bft)
29.07.2018 05:00 15,3 C 80 % 1012,5 hPa 0,0 l/m 4,2 km/h (1 Bft) S 0,05 h 10 W/m 11,9 C 15,3 C 7,1 km/h (2 Bft)
29.07.2018 06:00 14,9 C 85 % 1012,8 hPa 0,0 l/m 5,0 km/h (1 Bft) S-SO 0,00 h 22 W/m 12,4 C 14,9 C 9,2 km/h (2 Bft)
29.07.2018 07:00 15,6 C 83 % 1013,1 hPa 0,0 l/m 3,5 km/h (1 Bft) S-SO 0,00 h 44 W/m 12,7 C 15,6 C 7,3 km/h (2 Bft)
29.07.2018 08:00 17,5 C 77 % 1013,4 hPa 0,0 l/m 5,8 km/h (2 Bft) SO 0,20 h 170 W/m 13,4 C 17,5 C 11,4 km/h (2 Bft)
29.07.2018 09:00 20,0 C 66 % 1013,6 hPa 0,0 l/m 5,1 km/h (1 Bft) S 0,65 h 383 W/m 13,5 C 20,0 C 10,5 km/h (2 Bft)
29.07.2018 10:00 22,2 C 55 % 1013,6 hPa 0,0 l/m 5,5 km/h (2 Bft) S 0,80 h 480 W/m 12,6 C 22,1 C 11,3 km/h (2 Bft)
29.07.2018 11:00 23,8 C 54 % 1013,5 hPa 0,0 l/m 5,0 km/h (1 Bft) SO 1,00 h 668 W/m 13,9 C 23,8 C 11,1 km/h (2 Bft)
29.07.2018 12:00 25,2 C 47 % 1013,0 hPa 0,0 l/m 5,5 km/h (2 Bft) S 1,00 h 645 W/m 13,2 C 25,1 C 11,4 km/h (2 Bft)
29.07.2018 13:00 25,6 C 48 % 1012,4 hPa 0,0 l/m 5,3 km/h (1 Bft) S-SO 0,80 h 646 W/m 13,6 C 25,5 C 13,7 km/h (3 Bft)
29.07.2018 14:00 27,3 C 42 % 1011,8 hPa 0,0 l/m 8,1 km/h (2 Bft) O-SO 0,95 h 769 W/m 13,3 C 27,0 C 18,4 km/h (3 Bft)
29.07.2018 15:00 27,5 C 43 % 1011,3 hPa 0,0 l/m 9,3 km/h (2 Bft) S-SO 0,65 h 498 W/m 13,8 C 27,1 C 18,6 km/h (3 Bft)
29.07.2018 16:00 28,4 C 45 % 1010,6 hPa 0,0 l/m 9,6 km/h (2 Bft) SO 0,75 h 508 W/m 15,2 C 28,0 C 20,7 km/h (4 Bft)
29.07.2018 17:00 28,3 C 47 % 1010,0 hPa 0,0 l/m 9,0 km/h (2 Bft) O-SO 0,40 h 307 W/m 16,0 C 28,0 C 19,0 km/h (3 Bft)
29.07.2018 18:00 27,8 C 51 % 1009,9 hPa 0,0 l/m 8,7 km/h (2 Bft) SO 0,10 h 144 W/m 16,6 C 27,5 C 17,2 km/h (3 Bft)
29.07.2018 19:00 27,3 C 39 % 1010,3 hPa 0,0 l/m 9,2 km/h (2 Bft) S 0,00 h 50 W/m 12,0 C 26,9 C 17,6 km/h (3 Bft)
29.07.2018 20:00 26,1 C 43 % 1010,8 hPa 0,0 l/m 6,0 km/h (2 Bft) S-SW 0,00 h 9 W/m 12,2 C 26,0 C 10,2 km/h (2 Bft)
29.07.2018 21:00 24,3 C 52 % 1011,1 hPa 0,0 l/m 1,9 km/h (1 Bft) SW 0,00 h 7 W/m 13,7 C 24,3 C 4,0 km/h (1 Bft)
29.07.2018 22:00 22,4 C 60 % 1011,6 hPa 0,0 l/m 1,3 km/h (1 Bft) S-SO 0,00 h 0 W/m 14,3 C 22,4 C 3,5 km/h (1 Bft)
29.07.2018 23:00 21,6 C 61 % 1011,8 hPa 0,0 l/m 1,3 km/h (1 Bft) S-SO 0,00 h 0 W/m 13,9 C 21,6 C 2,8 km/h (1 Bft)
Min-Datum _ 26.07.18 26.07.18 28.07.18 - 23.07.18 - - - 26.07.18 26.07.18 23.07.18
_ Min-Zeit 19:33 19:33 13:39 - 03:24 - - - 19:33 20:03 03:24
Minimum _ 0,0 C 0 % 1004,1 hPa - 0,0 km/h (0 Bft) - - - -60,0 C -0,1 C 0,0 km/h (0 Bft)
Max-Datum _ 26.07.18 23.07.18 26.07.18 28.07.18 28.07.18 - 23.07.18 29.07.18 25.07.18 26.07.18 25.07.18
_ Max-Zeit 16:00 05:30 10:48 15:48 15:45 - 08:33 16:09 19:45 15:51 16:27
Maximum _ 34,4 C 95 % 1016,4 hPa 1,6 l/m 18,7 km/h
W (3 Bft)
- 0,05 h 874 W/m 22,0 C 34,3 C 37,0 km/h
N-NW (5 Bft)
Durchschnitt _ 23,8 C 71 % 1013,1 hPa #3,0 l/m 4,6 km/h (1 Bft) N-NW #59:39 h 327 W/m 17,5 C 23,7 C 10,5 km/h (2 Bft)
2018 Cux-Wetter.de -Die Nutzung der Wetterdaten nur mit ausdrcklicher Genehmigung